Time,TemperatureF,DewpointF,PressureIn,WindDirection,WindDirectionDegrees,WindSpeedMPH,WindSpeedGustMPH,Humidity,HourlyPrecipIn,Conditions,Clouds,dailyrainin,SoftwareType,DateUTC
2013-03-21 00:10:00,56.3,49.1,30.24,NNW,329,0.0,4.0,80,0.00,,,0.00,WMR918D-Custom,2013-03-21 07:10:00,
2013-03-21 00:20:00,56.3,49.5,30.24,WSW,245,0.0,0.0,81,0.00,,,0.00,WMR918D-Custom,2013-03-21 07:20:00,
2013-03-21 00:30:00,56.3,49.5,30.24,NW,317,0.0,0.0,81,0.00,,,0.00,WMR918D-Custom,2013-03-21 07:30:00,
2013-03-21 00:40:00,56.3,49.1,30.24,NW,312,3.1,3.1,80,0.00,,,0.00,WMR918D-Custom,2013-03-21 07:40:00,
2013-03-21 00:50:00,56.1,48.6,30.24,West,266,3.1,3.1,79,0.00,,,0.00,WMR918D-Custom,2013-03-21 07:50:00,
2013-03-21 01:00:00,55.9,47.7,30.24,West,266,3.6,3.6,77,0.00,,,0.00,WMR918D-Custom,2013-03-21 08:00:00,
2013-03-21 01:10:00,55.8,47.1,30.24,West,259,5.8,5.8,76,0.00,,,0.00,WMR918D-Custom,2013-03-21 08:10:00,
2013-03-21 01:20:00,55.4,46.4,30.24,West,269,4.0,4.0,75,0.00,,,0.00,WMR918D-Custom,2013-03-21 08:20:00,
2013-03-21 01:30:00,55.2,46.2,30.24,WSW,251,4.5,4.5,75,0.00,,,0.00,WMR918D-Custom,2013-03-21 08:30:00,
2013-03-21 01:40:00,55.0,46.0,30.24,NW,305,3.1,4.0,75,0.00,,,0.00,WMR918D-Custom,2013-03-21 08:40:00,
2013-03-21 01:50:00,54.7,45.7,30.24,NNW,337,2.7,0.0,75,0.00,,,0.00,WMR918D-Custom,2013-03-21 08:50:00,
2013-03-21 02:00:00,54.3,45.3,30.24,WSW,249,0.0,2.7,75,0.00,,,0.00,WMR918D-Custom,2013-03-21 09:00:00,
2013-03-21 02:10:00,53.8,44.1,30.24,NW,323,3.6,0.0,73,0.00,,,0.00,WMR918D-Custom,2013-03-21 09:10:00,
2013-03-21 02:20:00,53.2,43.5,30.24,West,270,3.1,3.6,73,0.00,,,0.00,WMR918D-Custom,2013-03-21 09:20:00,
2013-03-21 02:30:00,52.7,43.0,30.24,NW,306,0.0,0.0,73,0.00,,,0.00,WMR918D-Custom,2013-03-21 09:30:00,
2013-03-21 02:40:00,52.2,42.4,30.24,West,281,0.0,0.0,73,0.00,,,0.00,WMR918D-Custom,2013-03-21 09:40:00,
2013-03-21 02:50:00,51.6,42.3,30.24,NW,322,0.0,2.7,74,0.00,,,0.00,WMR918D-Custom,2013-03-21 09:50:00,
2013-03-21 03:00:00,51.3,41.5,30.24,WSW,248,3.1,0.0,73,0.00,,,0.00,WMR918D-Custom,2013-03-21 10:00:00,
2013-03-21 03:10:00,50.9,41.2,30.24,WNW,293,0.0,3.1,73,0.00,,,0.00,WMR918D-Custom,2013-03-21 10:10:00,
2013-03-21 03:20:00,50.5,40.5,30.24,NW,313,2.7,4.0,72,0.00,,,0.00,WMR918D-Custom,2013-03-21 10:20:00,
2013-03-21 03:30:00,50.4,40.3,30.24,West,268,0.0,2.7,72,0.00,,,0.00,WMR918D-Custom,2013-03-21 10:30:00,
2013-03-21 03:40:00,50.0,39.9,30.24,West,264,0.0,0.0,72,0.00,,,0.00,WMR918D-Custom,2013-03-21 10:40:00,
2013-03-21 03:50:00,49.6,39.6,30.24,WSW,253,3.1,4.9,72,0.00,,,0.00,WMR918D-Custom,2013-03-21 10:50:00,
2013-03-21 04:00:00,49.3,39.2,30.24,West,266,2.2,0.0,72,0.00,,,0.00,WMR918D-Custom,2013-03-21 11:00:00,
2013-03-21 04:10:00,48.9,38.8,30.24,NNW,329,0.0,0.0,72,0.00,,,0.00,WMR918D-Custom,2013-03-21 11:10:00,
2013-03-21 04:20:00,48.7,39.0,30.24,West,263,2.7,3.1,73,0.00,,,0.00,WMR918D-Custom,2013-03-21 11:20:00,
2013-03-21 04:30:00,48.6,38.8,30.24,SSW,194,0.0,0.0,73,0.00,,,0.00,WMR918D-Custom,2013-03-21 11:30:00,
2013-03-21 04:40:00,48.4,39.0,30.24,WSW,258,2.7,2.7,74,0.00,,,0.00,WMR918D-Custom,2013-03-21 11:40:00,
2013-03-21 04:50:00,48.4,39.0,30.24,WSW,241,3.1,3.6,74,0.00,,,0.00,WMR918D-Custom,2013-03-21 11:50:00,
2013-03-21 05:00:00,48.4,39.4,30.24,SSW,196,2.2,0.0,75,0.00,,,0.00,WMR918D-Custom,2013-03-21 12:00:00,
2013-03-21 05:10:00,48.4,39.4,30.24,SW,231,0.0,0.0,75,0.00,,,0.00,WMR918D-Custom,2013-03-21 12:10:00,
2013-03-21 05:20:00,48.0,39.4,30.24,WSW,244,0.0,0.0,76,0.00,,,0.00,WMR918D-Custom,2013-03-21 12:20:00,
2013-03-21 05:30:00,48.0,39.4,30.21,SSW,208,0.0,0.0,76,0.00,,,0.00,WMR918D-Custom,2013-03-21 12:30:00,
2013-03-21 05:40:00,47.8,39.2,30.21,SSW,207,0.0,0.0,76,0.00,,,0.00,WMR918D-Custom,2013-03-21 12:40:00,
2013-03-21 05:50:00,47.8,39.6,30.21,West,267,0.0,0.0,77,0.00,,,0.00,WMR918D-Custom,2013-03-21 12:50:00,
2013-03-21 06:00:00,48.2,39.9,30.21,WSW,257,0.0,0.0,77,0.00,,,0.00,WMR918D-Custom,2013-03-21 13:00:00,
2013-03-21 06:10:00,48.4,40.5,30.21,West,271,0.0,0.0,78,0.00,,,0.00,WMR918D-Custom,2013-03-21 13:10:00,
2013-03-21 06:20:00,48.6,40.6,30.21,SW,219,0.0,0.0,78,0.00,,,0.00,WMR918D-Custom,2013-03-21 13:20:00,
2013-03-21 06:30:00,48.6,40.6,30.21,SW,219,0.0,0.0,78,0.00,,,0.00,WMR918D-Custom,2013-03-21 13:30:00,
2013-03-21 06:40:00,48.4,40.5,30.21,WNW,294,0.0,0.0,78,0.00,,,0.00,WMR918D-Custom,2013-03-21 13:40:00,
2013-03-21 06:50:00,48.2,40.3,30.21,WSW,242,0.0,0.0,78,0.00,,,0.00,WMR918D-Custom,2013-03-21 13:50:00,
2013-03-21 07:00:00,48.2,40.3,30.21,West,262,0.0,0.0,78,0.00,,,0.00,WMR918D-Custom,2013-03-21 14:00:00,
2013-03-21 07:10:00,48.0,40.5,30.21,West,266,0.0,0.0,79,0.00,,,0.00,WMR918D-Custom,2013-03-21 14:10:00,
2013-03-21 07:20:00,48.0,40.5,30.21,WNW,291,0.0,0.0,79,0.00,,,0.00,WMR918D-Custom,2013-03-21 14:20:00,
2013-03-21 07:30:00,48.2,40.6,30.21,SW,226,0.0,0.0,79,0.00,,,0.00,WMR918D-Custom,2013-03-21 14:30:00,
2013-03-21 07:40:00,48.2,40.6,30.21,West,274,0.0,0.0,79,0.00,,,0.00,WMR918D-Custom,2013-03-21 14:40:00,
2013-03-21 07:50:00,48.2,40.6,30.21,West,274,0.0,0.0,79,0.00,,,0.00,WMR918D-Custom,2013-03-21 14:50:00,
2013-03-21 08:00:00,48.4,40.8,30.21,WSW,246,0.0,0.0,79,0.00,,,0.00,WMR918D-Custom,2013-03-21 15:00:00,
2013-03-21 08:10:00,48.6,41.0,30.21,South,177,0.0,0.0,79,0.00,,,0.00,WMR918D-Custom,2013-03-21 15:10:00,
2013-03-21 08:20:00,48.9,41.4,30.21,South,189,0.0,0.0,79,0.00,,,0.00,WMR918D-Custom,2013-03-21 15:20:00,
2013-03-21 08:30:00,49.5,41.9,30.21,SW,222,0.0,0.0,79,0.00,,,0.00,WMR918D-Custom,2013-03-21 15:30:00,
2013-03-21 08:40:00,50.0,41.7,30.21,West,271,0.0,0.0,77,0.00,,,0.00,WMR918D-Custom,2013-03-21 15:40:00,
2013-03-21 08:50:00,50.5,41.9,30.21,West,273,0.0,0.0,76,0.00,,,0.00,WMR918D-Custom,2013-03-21 15:50:00,
2013-03-21 09:00:00,51.4,42.4,30.21,NW,318,4.0,4.0,75,0.00,,,0.00,WMR918D-Custom,2013-03-21 16:00:00,
2013-03-21 09:10:00,51.6,42.3,30.21,NNW,341,0.0,0.0,74,0.00,,,0.00,WMR918D-Custom,2013-03-21 16:10:00,
2013-03-21 09:20:00,52.2,42.4,30.21,West,266,0.0,0.0,73,0.00,,,0.00,WMR918D-Custom,2013-03-21 16:20:00,
2013-03-21 09:30:00,52.5,42.4,30.21,NE,38,0.0,0.0,72,0.00,,,0.00,WMR918D-Custom,2013-03-21 16:30:00,
2013-03-21 09:40:00,53.1,43.0,30.24,NNE,25,2.2,3.1,72,0.00,,,0.00,WMR918D-Custom,2013-03-21 16:40:00,
2013-03-21 09:50:00,53.8,43.7,30.24,NNW,337,2.7,3.6,72,0.00,,,0.00,WMR918D-Custom,2013-03-21 16:50:00,
2013-03-21 10:00:00,54.1,43.7,30.24,WNW,300,2.7,4.0,71,0.00,,,0.00,WMR918D-Custom,2013-03-21 17:00:00,
2013-03-21 10:10:00,54.1,43.0,30.21,WNW,292,3.6,3.6,69,0.00,,,0.00,WMR918D-Custom,2013-03-21 17:10:00,
2013-03-21 10:20:00,54.5,43.3,30.21,NW,325,3.1,3.1,69,0.00,,,0.00,WMR918D-Custom,2013-03-21 17:20:00,
2013-03-21 10:30:00,55.0,43.5,30.21,WSW,246,3.1,3.6,68,0.00,,,0.00,WMR918D-Custom,2013-03-21 17:30:00,
2013-03-21 10:40:00,55.2,43.3,30.24,NNW,330,4.0,4.0,67,0.00,,,0.00,WMR918D-Custom,2013-03-21 17:40:00,
2013-03-21 10:50:00,55.4,42.8,30.24,North,2,4.0,0.0,65,0.00,,,0.00,WMR918D-Custom,2013-03-21 17:50:00,
2013-03-21 11:00:00,55.9,43.0,30.24,NNW,331,4.5,4.5,64,0.00,,,0.00,WMR918D-Custom,2013-03-21 18:00:00,
2013-03-21 11:10:00,56.5,43.2,30.24,North,0,4.9,4.9,63,0.00,,,0.00,WMR918D-Custom,2013-03-21 18:10:00,
2013-03-21 11:20:00,56.8,42.4,30.24,North,9,2.7,3.6,60,0.00,,,0.00,WMR918D-Custom,2013-03-21 18:20:00,
2013-03-21 11:30:00,57.6,43.5,30.24,NW,325,6.7,6.7,61,0.00,,,0.00,WMR918D-Custom,2013-03-21 18:30:00,
2013-03-21 11:40:00,58.3,43.9,30.21,North,357,0.0,4.0,60,0.00,,,0.00,WMR918D-Custom,2013-03-21 18:40:00,
2013-03-21 11:50:00,58.8,43.7,30.21,NE,36,4.9,4.9,58,0.00,,,0.00,WMR918D-Custom,2013-03-21 18:50:00,
2013-03-21 12:00:00,59.0,42.8,30.21,East,99,2.7,0.0,55,0.00,,,0.00,WMR918D-Custom,2013-03-21 19:00:00,
2013-03-21 12:10:00,59.4,42.8,30.21,North,4,4.0,5.4,54,0.00,,,0.00,WMR918D-Custom,2013-03-21 19:10:00,
2013-03-21 12:20:00,59.7,42.8,30.21,NW,306,4.9,8.3,53,0.00,,,0.00,WMR918D-Custom,2013-03-21 19:20:00,
2013-03-21 12:30:00,60.4,43.9,30.21,NE,42,2.7,2.7,54,0.00,,,0.00,WMR918D-Custom,2013-03-21 19:30:00,
2013-03-21 12:40:00,61.0,43.7,30.21,NNW,344,2.2,2.7,52,0.00,,,0.00,WMR918D-Custom,2013-03-21 19:40:00,
2013-03-21 12:50:00,61.7,44.1,30.21,NNW,330,4.0,4.9,51,0.00,,,0.00,WMR918D-Custom,2013-03-21 19:50:00,
2013-03-21 13:00:00,62.1,43.7,30.21,NW,318,5.4,8.1,49,0.00,,,0.00,WMR918D-Custom,2013-03-21 20:00:00,
2013-03-21 13:10:00,62.4,44.4,30.21,WNW,286,2.7,4.0,50,0.00,,,0.00,WMR918D-Custom,2013-03-21 20:10:00,
2013-03-21 13:20:00,62.4,44.1,30.21,ENE,71,0.0,2.7,49,0.00,,,0.00,WMR918D-Custom,2013-03-21 20:20:00,
2013-03-21 13:30:00,63.1,44.8,30.21,WSW,243,4.0,4.0,49,0.00,,,0.00,WMR918D-Custom,2013-03-21 20:30:00,
2013-03-21 13:40:00,63.5,44.4,30.18,NNE,19,3.1,3.1,47,0.00,,,0.00,WMR918D-Custom,2013-03-21 20:40:00,
2013-03-21 13:50:00,63.9,44.8,30.18,NNE,31,4.5,4.5,47,0.00,,,0.00,WMR918D-Custom,2013-03-21 20:50:00,
2013-03-21 14:00:00,64.2,45.1,30.18,NNW,329,2.2,2.7,47,0.00,,,0.00,WMR918D-Custom,2013-03-21 21:00:00,
2013-03-21 14:10:00,64.8,45.7,30.18,WNW,292,4.0,4.0,47,0.00,,,0.00,WMR918D-Custom,2013-03-21 21:10:00,
2013-03-21 14:20:00,64.9,45.1,30.18,WNW,296,4.9,4.9,45,0.00,,,0.00,WMR918D-Custom,2013-03-21 21:20:00,
2013-03-21 14:30:00,65.1,45.7,30.18,SSW,194,4.0,4.0,46,0.00,,,0.00,WMR918D-Custom,2013-03-21 21:30:00,
2013-03-21 14:40:00,65.7,46.2,30.15,NNW,345,4.5,4.5,46,0.00,,,0.00,WMR918D-Custom,2013-03-21 21:40:00,
2013-03-21 14:50:00,65.7,45.5,30.15,WNW,296,4.0,4.9,44,0.00,,,0.00,WMR918D-Custom,2013-03-21 21:50:00,
2013-03-21 15:00:00,66.2,45.7,30.15,NW,312,4.0,8.3,43,0.00,,,0.00,WMR918D-Custom,2013-03-21 22:00:00,
2013-03-21 15:10:00,66.4,45.5,30.15,North,353,3.1,3.6,42,0.00,,,0.00,WMR918D-Custom,2013-03-21 22:10:00,
2013-03-21 15:20:00,66.4,45.1,30.15,North,357,4.5,4.9,41,0.00,,,0.00,WMR918D-Custom,2013-03-21 22:20:00,
2013-03-21 15:30:00,66.7,45.5,30.15,North,357,2.2,3.1,41,0.00,,,0.00,WMR918D-Custom,2013-03-21 22:30:00,
2013-03-21 15:40:00,67.1,45.5,30.15,North,357,6.3,6.3,40,0.00,,,0.00,WMR918D-Custom,2013-03-21 22:40:00,
2013-03-21 15:50:00,66.9,45.0,30.15,NW,310,3.6,3.6,39,0.00,,,0.00,WMR918D-Custom,2013-03-21 22:50:00,
2013-03-21 16:00:00,66.9,44.2,30.15,WNW,282,6.3,10.5,37,0.00,,,0.00,WMR918D-Custom,2013-03-21 23:00:00,
2013-03-21 16:10:00,66.7,44.1,30.12,NNW,328,0.0,0.0,37,0.00,,,0.00,WMR918D-Custom,2013-03-21 23:10:00,
2013-03-21 16:20:00,66.7,44.1,30.12,NW,304,4.9,4.9,37,0.00,,,0.00,WMR918D-Custom,2013-03-21 23:20:00,
2013-03-21 16:30:00,66.9,44.6,30.12,NNW,331,3.6,6.3,38,0.00,,,0.00,WMR918D-Custom,2013-03-21 23:30:00,
2013-03-21 16:40:00,66.7,44.8,30.12,NNW,332,4.5,9.6,39,0.00,,,0.00,WMR918D-Custom,2013-03-21 23:40:00,
2013-03-21 16:50:00,66.6,44.6,30.12,West,275,3.6,5.8,39,0.00,,,0.00,WMR918D-Custom,2013-03-21 23:50:00,
2013-03-21 17:00:00,66.6,44.6,30.12,NNW,330,4.0,4.0,39,0.00,,,0.00,WMR918D-Custom,2013-03-22 00:00:00,
2013-03-21 17:10:00,66.4,44.4,30.12,NW,313,4.5,4.9,39,0.00,,,0.00,WMR918D-Custom,2013-03-22 00:10:00,
2013-03-21 17:20:00,66.2,43.5,30.12,NNW,346,0.0,4.0,37,0.00,,,0.00,WMR918D-Custom,2013-03-22 00:20:00,
2013-03-21 17:30:00,66.0,43.3,30.12,NNW,327,4.0,6.3,37,0.00,,,0.00,WMR918D-Custom,2013-03-22 00:30:00,
2013-03-21 17:40:00,65.8,43.5,30.12,NNW,328,3.6,6.3,38,0.00,,,0.00,WMR918D-Custom,2013-03-22 00:40:00,
2013-03-21 17:50:00,65.7,44.1,30.12,NW,304,4.9,5.4,40,0.00,,,0.00,WMR918D-Custom,2013-03-22 00:50:00,
2013-03-21 18:00:00,65.1,43.5,30.12,West,260,3.6,4.0,40,0.00,,,0.00,WMR918D-Custom,2013-03-22 01:00:00,
2013-03-21 18:10:00,64.8,43.9,30.12,West,281,4.9,4.9,42,0.00,,,0.00,WMR918D-Custom,2013-03-22 01:10:00,
2013-03-21 18:20:00,64.4,43.9,30.12,NE,35,4.9,4.9,43,0.00,,,0.00,WMR918D-Custom,2013-03-22 01:20:00,
2013-03-21 18:30:00,63.9,43.7,30.12,NW,307,2.2,3.1,44,0.00,,,0.00,WMR918D-Custom,2013-03-22 01:30:00,
2013-03-21 18:40:00,63.3,43.5,30.12,NW,318,2.7,3.1,45,0.00,,,0.00,WMR918D-Custom,2013-03-22 01:40:00,
2013-03-21 18:50:00,62.8,43.0,30.12,WNW,292,3.6,4.0,45,0.00,,,0.00,WMR918D-Custom,2013-03-22 01:50:00,
2013-03-21 19:00:00,62.2,42.8,30.12,WNW,285,3.1,4.0,46,0.00,,,0.00,WMR918D-Custom,2013-03-22 02:00:00,
2013-03-21 19:10:00,61.3,41.9,30.12,NW,317,2.2,4.0,46,0.00,,,0.00,WMR918D-Custom,2013-03-22 02:10:00,
2013-03-21 19:20:00,60.6,41.5,30.12,NNW,327,3.6,3.6,47,0.00,,,0.00,WMR918D-Custom,2013-03-22 02:20:00,
2013-03-21 19:30:00,59.9,41.2,30.12,NNW,329,3.1,5.4,48,0.00,,,0.00,WMR918D-Custom,2013-03-22 02:30:00,
2013-03-21 19:40:00,59.4,40.6,30.12,NW,309,2.2,3.1,48,0.00,,,0.00,WMR918D-Custom,2013-03-22 02:40:00,
2013-03-21 19:50:00,58.6,40.3,30.12,North,353,0.0,2.7,49,0.00,,,0.00,WMR918D-Custom,2013-03-22 02:50:00,
2013-03-21 20:00:00,58.1,39.7,30.12,NW,310,0.0,0.0,49,0.00,,,0.00,WMR918D-Custom,2013-03-22 03:00:00,
2013-03-21 20:10:00,57.6,39.2,30.12,NW,325,0.0,3.1,49,0.00,,,0.00,WMR918D-Custom,2013-03-22 03:10:00,
2013-03-21 20:20:00,57.2,39.6,30.12,NW,316,0.0,0.0,51,0.00,,,0.00,WMR918D-Custom,2013-03-22 03:20:00,
2013-03-21 20:30:00,56.7,39.0,30.12,West,281,0.0,0.0,51,0.00,,,0.00,WMR918D-Custom,2013-03-22 03:30:00,
2013-03-21 20:40:00,55.9,39.0,30.12,West,280,0.0,0.0,53,0.00,,,0.00,WMR918D-Custom,2013-03-22 03:40:00,
2013-03-21 20:50:00,55.0,38.8,30.12,West,280,0.0,0.0,55,0.00,,,0.00,WMR918D-Custom,2013-03-22 03:50:00,
2013-03-21 21:10:00,53.8,39.0,30.15,West,280,0.0,0.0,59,0.00,,,0.00,WMR918D-Custom,2013-03-22 04:10:00,
2013-03-21 21:20:00,53.1,39.0,30.15,West,280,0.0,0.0,61,0.00,,,0.00,WMR918D-Custom,2013-03-22 04:20:00,
2013-03-21 21:30:00,52.7,38.7,30.15,West,279,0.0,0.0,61,0.00,,,0.00,WMR918D-Custom,2013-03-22 04:30:00,
2013-03-21 21:40:00,52.2,39.2,30.15,WSW,238,0.0,0.0,64,0.00,,,0.00,WMR918D-Custom,2013-03-22 04:40:00,
2013-03-21 21:50:00,51.8,38.8,30.15,WSW,239,0.0,0.0,64,0.00,,,0.00,WMR918D-Custom,2013-03-22 04:50:00,
2013-03-21 22:00:00,51.6,39.4,30.15,WSW,239,0.0,0.0,66,0.00,,,0.00,WMR918D-Custom,2013-03-22 05:00:00,
2013-03-21 22:10:00,51.3,39.0,30.15,WSW,239,0.0,0.0,66,0.00,,,0.00,WMR918D-Custom,2013-03-22 05:10:00,
2013-03-21 22:20:00,51.1,38.8,30.15,WSW,239,0.0,0.0,66,0.00,,,0.00,WMR918D-Custom,2013-03-22 05:20:00,
2013-03-21 22:30:00,50.7,39.2,30.15,WSW,239,0.0,0.0,68,0.00,,,0.00,WMR918D-Custom,2013-03-22 05:30:00,
2013-03-21 22:40:00,50.4,38.8,30.15,WSW,238,0.0,0.0,68,0.00,,,0.00,WMR918D-Custom,2013-03-22 05:40:00,
2013-03-21 22:50:00,50.0,38.8,30.15,WSW,239,0.0,0.0,69,0.00,,,0.00,WMR918D-Custom,2013-03-22 05:50:00,
2013-03-21 23:00:00,49.5,38.7,30.15,WSW,238,0.0,0.0,70,0.00,,,0.00,WMR918D-Custom,2013-03-22 06:00:00,
2013-03-21 23:10:00,49.1,38.7,30.15,WSW,239,0.0,0.0,71,0.00,,,0.00,WMR918D-Custom,2013-03-22 06:10:00,
2013-03-21 23:20:00,48.7,38.7,30.15,WSW,239,0.0,0.0,72,0.00,,,0.00,WMR918D-Custom,2013-03-22 06:20:00,
2013-03-21 23:30:00,48.6,38.5,30.15,WSW,238,0.0,0.0,72,0.00,,,0.00,WMR918D-Custom,2013-03-22 06:30:00,
2013-03-21 23:40:00,48.2,38.5,30.15,WSW,238,0.0,0.0,73,0.00,,,0.00,WMR918D-Custom,2013-03-22 06:40:00,
2013-03-21 23:50:00,48.0,38.7,30.15,WSW,239,0.0,0.0,74,0.00,,,0.00,WMR918D-Custom,2013-03-22 06:50:00,